Terminal Aerodrome Forecast
Issued by NWS Sterling, VA

Current Version | Previous Version | Graphics & Text | Print | Product List | Glossary On
Versions: 1 2 3 4 5 6 7 8 9 10 11 12 13 14 15 16 17 18 19 20 21 22 23 24
000
FTUS41 KLWX 272033 AAC
TAFDCA
TAF AMD
KDCA 272033Z 2721/2818 11004KT P6SM SCT060 BKN250
     FM280000 18004KT P6SM BKN060
     FM280700 00000KT P6SM BKN110
     FM281200 19006KT P6SM BKN070=

USA.gov is the U.S. government's official web portal to all federal, state and local government web resources and services.